Time;durP1;ratioP1;P1;durP2;ratioP2;P2;SDS_P1;SDS_P2;PMS_P1;PMS_P2;Temp;Humidity;BMP_temperature;BMP_pressure;BME280_temperature;BME280_humidity;BME280_pressure;Samples;Min_cycle;Max_cycle;Signal;HPM_P1;HPM_P2
2024/03/29 03:33:01;;;;;;;6.90;2.50;;;;;;;25.72;24.29;100218.13;108312;1262;72464;-92
2024/03/29 03:50:59;;;;;;;9.90;2.90;;;;;;;24.75;24.32;100236.89;108070;1267;67282;31
2024/03/29 04:22:02;;;;;;;9.80;4.20;;;;;;;25.18;24.85;100277.98;109032;1262;67119;-91
2024/03/29 05:41:49;;;;;;;7.70;2.80;;;;;;;23.89;24.85;100399.02;109192;1262;66501;-90
2024/03/29 07:14:28;;;;;;;27.50;4.90;;;;;;;25.21;24.87;100422.19;108765;1265;69686;-91
2024/03/29 07:21:10;;;;;;;22.70;4.20;;;;;;;25.25;24.87;100432.59;104561;1262;68886;-89
2024/03/29 07:23:43;;;;;;;22.20;4.60;;;;;;;25.28;24.87;100437.56;108220;1267;68499;-88
2024/03/29 07:26:17;;;;;;;14.10;3.40;;;;;;;25.30;24.93;100443.14;108367;1262;68081;-88
2024/03/29 07:28:46;;;;;;;18.60;4.10;;;;;;;25.31;24.96;100448.38;108499;1263;73824;-89
2024/03/29 07:31:14;;;;;;;12.70;3.70;;;;;;;25.34;25.02;100453.48;108265;1262;68206;-84
2024/03/29 07:36:35;;;;;;;12.50;3.30;;;;;;;25.40;25.22;100463.30;108308;1268;69900;-85
2024/03/29 07:39:04;;;;;;;20.10;3.40;;;;;;;25.42;24.91;100465.96;108354;1269;68251;-84
2024/03/29 07:41:50;;;;;;;;;;;;;;;;;;;;;
2024/03/29 07:44:25;;;;;;;11.80;3.40;;;;;;;25.48;25.22;100466.38;108237;1264;69813;-86
2024/03/29 07:46:53;;;;;;;17.10;3.30;;;;;;;25.53;25.13;100466.54;108110;1268;68108;-86
2024/03/29 07:49:22;;;;;;;12.40;2.80;;;;;;;25.56;24.96;100470.98;108102;1269;70018;-85
2024/03/29 07:51:53;;;;;;;10.90;2.90;;;;;;;25.58;24.92;100467.53;108131;1269;67800;-92
2024/03/29 07:54:19;;;;;;;9.40;2.60;;;;;;;25.60;25.01;100466.09;108305;1267;75293;-86
2024/03/29 07:56:48;;;;;;;12.20;2.80;;;;;;;25.63;24.95;100469.65;108302;1264;70080;-86
2024/03/29 07:59:13;;;;;;;8.90;2.70;;;;;;;25.65;25.00;100461.92;108245;1264;70035;-83
2024/03/29 08:01:41;;;;;;;15.70;3.40;;;;;;;25.67;24.93;100460.17;108214;1268;68637;-84
2024/03/29 08:04:09;;;;;;;21.90;3.20;;;;;;;25.68;24.86;100461.39;108256;1264;69815;-85
2024/03/29 08:51:20;;;;;;;11.90;4.60;;;;;;;25.90;25.31;100452.92;108525;1267;72351;-89
2024/03/29 08:54:04;;;;;;;10.30;4.60;;;;;;;25.92;25.37;100451.96;108165;1264;68273;-85
2024/03/29 08:56:34;;;;;;;13.80;4.70;;;;;;;25.93;25.12;100436.83;108332;1264;69917;-87
2024/03/29 08:59:15;;;;;;;14.50;3.00;;;;;;;25.96;25.09;100438.73;108393;1269;69829;-89
2024/03/29 09:07:17;;;;;;;17.50;4.80;;;;;;;25.85;25.15;100446.98;108663;1262;68160;-88
2024/03/29 09:09:43;;;;;;;22.90;4.40;;;;;;;25.80;25.27;100444.77;108310;1266;68308;-85
2024/03/29 09:12:11;;;;;;;22.80;5.00;;;;;;;25.78;25.41;100439.05;108367;1263;68121;-83
2024/03/29 09:14:37;;;;;;;17.90;4.80;;;;;;;25.79;25.32;100433.77;108228;1262;69858;-87
2024/03/29 09:17:03;;;;;;;17.30;4.40;;;;;;;25.82;25.44;100433.88;108006;1264;69950;-87
2024/03/29 09:19:31;;;;;;;21.90;4.50;;;;;;;25.84;25.51;100427.02;107959;1262;69852;-87
2024/03/29 09:22:00;;;;;;;19.30;5.20;;;;;;;25.87;25.41;100433.42;108157;1262;69988;-87
2024/03/29 09:24:57;;;;;;;;;;;;;;;25.88;25.29;100436.16;107968;1262;69901;-85
2024/03/29 09:27:34;;;;;;;10.70;3.90;;;;;;;25.89;25.13;100436.80;108086;1262;68622;-90
2024/03/29 09:30:06;;;;;;;10.40;3.60;;;;;;;25.92;25.38;100430.61;107944;1265;74105;-86
2024/03/29 09:32:32;;;;;;;11.30;3.40;;;;;;;25.96;25.30;100431.30;107921;1262;69805;-85
2024/03/29 09:34:58;;;;;;;11.50;3.60;;;;;;;25.99;25.50;100420.26;108017;1266;67778;-86
2024/03/29 09:37:23;;;;;;;10.60;3.50;;;;;;;26.02;25.48;100415.44;108196;1262;67651;-88
2024/03/29 09:39:49;;;;;;;11.10;3.00;;;;;;;26.05;25.39;100417.90;108310;1262;67668;-87
2024/03/29 09:45:03;;;;;;;13.50;3.20;;;;;;;26.09;25.28;100415.48;107936;1262;69950;-86
2024/03/29 09:47:29;;;;;;;16.50;3.20;;;;;;;26.10;25.14;100413.48;107417;1262;67793;-87
2024/03/29 09:49:55;;;;;;;13.30;2.60;;;;;;;26.10;25.25;100422.23;107681;1264;69307;-87
2024/03/29 09:52:31;;;;;;;16.00;2.70;;;;;;;26.10;25.42;100414.35;107672;1262;69257;-87
2024/03/29 09:54:57;;;;;;;18.70;2.30;;;;;;;26.10;25.27;100410.23;107838;1263;69996;-89
2024/03/29 09:57:29;;;;;;;10.50;2.80;;;;;;;26.13;25.15;100403.79;108114;1262;69932;-88
2024/03/29 10:00:08;;;;;;;10.20;3.20;;;;;;;26.14;25.26;100396.65;107942;1262;67992;-89
2024/03/29 10:05:52;;;;;;;12.30;3.10;;;;;;;26.17;25.23;100394.46;108034;1263;71815;-88
2024/03/29 10:08:17;;;;;;;10.40;3.40;;;;;;;26.19;25.29;100397.21;107735;1264;67475;-85
2024/03/29 10:10:43;;;;;;;14.80;3.30;;;;;;;26.22;25.26;100404.17;107520;1264;70008;-85
2024/03/29 10:13:08;;;;;;;10.80;3.60;;;;;;;26.23;25.04;100402.78;107609;1268;69994;-86
2024/03/29 10:15:45;;;;;;;8.80;3.90;;;;;;;26.25;25.17;100411.14;108022;1264;70006;-87
2024/03/29 10:18:21;;;;;;;13.10;3.80;;;;;;;26.25;24.97;100415.77;107287;1265;73104;-93
2024/03/29 10:23:52;;;;;;;10.80;3.30;;;;;;;26.24;25.05;100414.45;107437;1264;67775;-84
2024/03/29 10:26:34;;;;;;;14.30;3.90;;;;;;;26.24;25.05;100409.16;107752;1264;67521;-87
2024/03/29 10:31:49;;;;;;;31.40;5.60;;;;;;;26.19;24.92;100399.17;108181;1262;72285;-87
2024/03/29 10:34:16;;;;;;;24.40;5.00;;;;;;;26.14;25.12;100400.51;107912;1262;69890;-88
2024/03/29 10:42:52;;;;;;;16.10;2.30;;;;;;;25.96;24.95;100400.77;108104;1264;70374;-89
2024/03/29 10:45:18;;;;;;;21.60;2.10;;;;;;;25.95;24.97;100406.38;108455;1264;69999;-90
2024/03/29 10:50:37;;;;;;;10.30;2.00;;;;;;;26.01;24.91;100406.61;109013;1264;65892;-88
2024/03/29 10:53:03;;;;;;;14.80;2.10;;;;;;;26.06;24.86;100409.44;107841;1264;69819;-88
2024/03/29 10:55:37;;;;;;;11.90;1.90;;;;;;;26.10;24.85;100412.02;107227;1266;69993;-86
2024/03/29 10:58:07;;;;;;;15.90;2.30;;;;;;;26.14;24.78;100414.84;107179;1270;74339;-85
2024/03/29 11:00:38;;;;;;;19.00;2.20;;;;;;;26.18;24.93;100415.23;107128;1264;69949;-84
2024/03/29 11:03:28;;;;;;;18.30;2.00;;;;;;;26.22;24.94;100422.32;107152;1264;67862;-89
2024/03/29 11:11:24;;;;;;;15.70;1.80;;;;;;;26.29;24.99;100416.59;108157;1264;72818;-90
2024/03/29 11:19:32;;;;;;;10.60;2.10;;;;;;;26.40;24.98;100419.47;107514;1264;69884;-90
2024/03/29 11:21:58;;;;;;;13.10;2.10;;;;;;;26.43;24.90;100415.52;107413;1265;70005;-87
2024/03/29 11:24:24;;;;;;;9.70;2.00;;;;;;;26.46;24.99;100412.88;107305;1270;70100;-88
2024/03/29 11:38:37;;;;;;;11.20;1.70;;;;;;;26.56;24.91;100403.92;107551;1264;75259;-88
2024/03/29 11:41:12;;;;;;;12.80;2.00;;;;;;;26.57;24.96;100404.77;107579;1268;70010;-90
2024/03/29 11:46:19;;;;;;;4.70;1.40;;;;;;;26.61;24.74;100418.05;107772;1265;70024;-87
2024/03/29 11:51:28;;;;;;;6.70;1.60;;;;;;;26.64;24.55;100422.19;107625;1262;75133;-86
2024/03/29 11:53:54;;;;;;;10.30;2.00;;;;;;;26.65;24.77;100419.06;107500;1262;70049;-88
2024/03/29 11:56:25;;;;;;;18.10;9.50;;;;;;;26.67;24.81;100419.92;107398;1267;69910;-89
2024/03/29 11:58:53;;;;;;;24.80;18.20;;;;;;;26.67;24.86;100427.02;107710;1262;69895;-87
2024/03/29 12:01:18;;;;;;;20.50;15.10;;;;;;;26.66;24.77;100425.23;107401;1267;69826;-90
2024/03/29 12:03:44;;;;;;;26.40;14.30;;;;;;;26.65;24.72;100419.48;107900;1263;69957;-89
2024/03/29 12:06:19;;;;;;;21.60;12.70;;;;;;;26.66;24.45;100431.34;107983;1263;70033;-91
2024/03/29 12:08:59;;;;;;;18.50;12.50;;;;;;;26.66;24.49;100434.22;107987;1262;69848;-88
2024/03/29 12:14:13;;;;;;;15.40;11.50;;;;;;;26.69;24.46;100418.88;107881;1262;69902;-87
2024/03/29 12:16:46;;;;;;;13.70;10.60;;;;;;;26.71;24.35;100423.63;108016;1262;69891;-93
2024/03/29 12:19:23;;;;;;;14.90;10.20;;;;;;;26.72;24.31;100424.84;107594;1263;67836;-89
2024/03/29 12:21:54;;;;;;;18.40;9.50;;;;;;;26.73;24.42;100420.58;107999;1262;68159;-91
2024/03/29 12:27:30;;;;;;;11.80;8.80;;;;;;;26.75;24.35;100415.36;107760;1267;69963;-88
2024/03/29 12:29:56;;;;;;;14.10;8.00;;;;;;;26.77;24.38;100417.08;107928;1266;67977;-86
2024/03/29 12:32:23;;;;;;;11.50;7.40;;;;;;;26.78;24.25;100414.26;107674;1267;68624;-88
2024/03/29 12:34:50;;;;;;;13.50;7.30;;;;;;;26.80;24.22;100413.72;107568;1262;70076;-88
2024/03/29 12:37:16;;;;;;;9.40;7.10;;;;;;;26.81;24.24;100414.22;107489;1269;70020;-85
2024/03/29 12:39:42;;;;;;;9.20;6.30;;;;;;;26.82;24.47;100419.35;107464;1264;67787;-86
2024/03/29 12:42:07;;;;;;;10.10;5.70;;;;;;;26.83;24.46;100415.50;107370;1264;69926;-83
2024/03/29 12:47:17;;;;;;;9.40;5.60;;;;;;;26.86;24.66;100422.56;108251;1263;69708;-89
2024/03/29 12:49:43;;;;;;;11.00;5.70;;;;;;;26.88;24.56;100430.30;108042;1263;70013;-86
2024/03/29 12:52:09;;;;;;;6.20;4.80;;;;;;;26.89;24.81;100426.05;107542;1268;70017;-85
2024/03/29 12:54:36;;;;;;;11.70;4.80;;;;;;;26.89;24.74;100421.45;108077;1263;69960;-86
2024/03/29 12:57:02;;;;;;;10.30;4.70;;;;;;;26.90;24.64;100417.52;108249;1259;69846;-87
2024/03/29 12:59:29;;;;;;;8.60;4.20;;;;;;;26.91;24.76;100415.83;107981;1264;69886;-88
2024/03/29 13:02:16;;;;;;;6.70;3.30;;;;;;;26.91;24.61;100416.91;108656;1264;67589;-87
2024/03/29 13:04:44;;;;;;;8.40;3.60;;;;;;;26.92;24.70;100418.75;108907;1264;67667;-87
2024/03/29 13:07:13;;;;;;;7.30;3.70;;;;;;;26.92;24.60;100423.34;108736;1264;74559;-88
2024/03/29 13:09:39;;;;;;;6.30;3.20;;;;;;;26.93;24.49;100417.48;109017;1264;67842;-90
2024/03/29 13:12:06;;;;;;;8.40;3.40;;;;;;;26.94;24.44;100418.42;108822;1263;67669;-84
2024/03/29 13:17:13;;;;;;;4.70;3.00;;;;;;;26.97;24.41;100426.77;108612;1263;69776;-89
2024/03/29 13:25:21;;;;;;;9.80;2.80;;;;;;;26.96;24.11;100425.17;108712;1263;70727;-89
2024/03/29 13:27:54;;;;;;;7.20;2.40;;;;;;;26.98;23.97;100422.50;108211;1263;68632;-89
2024/03/29 13:30:23;;;;;;;5.40;2.10;;;;;;;27.00;23.97;100424.77;107380;1263;75438;-87
2024/03/29 13:32:49;;;;;;;6.70;2.10;;;;;;;27.00;23.80;100427.63;107382;1263;74026;-86
2024/03/29 13:35:15;;;;;;;7.30;2.40;;;;;;;27.00;23.79;100426.48;107521;1262;69937;-89
2024/03/29 13:37:48;;;;;;;8.80;2.20;;;;;;;27.02;24.00;100426.95;107593;1268;69978;-86
2024/03/29 13:40:15;;;;;;;7.70;2.30;;;;;;;27.03;23.94;100426.77;107491;1263;69744;-86
2024/03/29 13:45:25;;;;;;;14.60;2.30;;;;;;;27.03;24.12;100422.58;107312;1262;74099;-87
2024/03/29 13:47:52;;;;;;;6.80;2.30;;;;;;;27.04;23.90;100417.27;107337;1262;69960;-88
2024/03/29 13:50:17;;;;;;;10.40;2.00;;;;;;;27.05;23.96;100427.13;107139;1262;70011;-87
2024/03/29 13:52:46;;;;;;;8.60;1.90;;;;;;;27.05;24.05;100434.86;107459;1262;70136;-87
2024/03/29 13:55:12;;;;;;;11.30;2.50;;;;;;;27.06;23.88;100431.92;107039;1262;69758;-87
2024/03/29 13:57:38;;;;;;;10.20;2.20;;;;;;;27.06;23.91;100429.12;107247;1263;69982;-87
2024/03/29 14:00:05;;;;;;;9.20;2.20;;;;;;;27.07;23.84;100433.06;107265;1263;69750;-87
2024/03/29 14:02:35;;;;;;;11.20;2.00;;;;;;;27.08;23.86;100432.58;107467;1262;69835;-93
2024/03/29 14:05:07;;;;;;;8.20;2.10;;;;;;;27.08;23.87;100427.46;107723;1263;68305;-87
2024/03/29 14:07:33;;;;;;;5.30;1.80;;;;;;;27.09;23.90;100432.65;107516;1268;69940;-90
2024/03/29 14:10:07;;;;;;;6.50;2.00;;;;;;;27.09;23.91;100434.70;107950;1262;70923;-90
2024/03/29 14:12:33;;;;;;;6.60;2.00;;;;;;;27.08;23.83;100427.77;107726;1262;68321;-87
2024/03/29 14:15:00;;;;;;;8.90;2.50;;;;;;;27.09;23.88;100422.46;107633;1263;68614;-88
2024/03/29 14:17:28;;;;;;;6.60;2.00;;;;;;;27.09;23.72;100420.91;107508;1263;69876;-91
2024/03/29 14:19:54;;;;;;;5.70;1.90;;;;;;;27.11;23.71;100419.02;108156;1262;69748;-88
2024/03/29 14:22:20;;;;;;;4.60;1.80;;;;;;;27.12;23.73;100416.16;107768;1262;70304;-88
2024/03/29 14:24:46;;;;;;;9.20;1.70;;;;;;;27.09;23.58;100414.32;108321;1262;69886;-88
2024/03/29 14:27:16;;;;;;;10.30;1.90;;;;;;;27.07;23.56;100415.67;107894;1262;70006;-86
2024/03/29 14:29:44;;;;;;;10.90;1.80;;;;;;;27.05;23.53;100413.66;107360;1262;69927;-85
2024/03/29 14:34:53;;;;;;;8.70;1.40;;;;;;;27.05;23.43;100409.37;107321;1265;74289;-88
2024/03/29 14:37:19;;;;;;;6.90;1.80;;;;;;;27.06;23.40;100417.00;107652;1263;69942;-87
2024/03/29 14:39:45;;;;;;;6.90;1.60;;;;;;;27.06;23.54;100414.51;107519;1264;69965;-88
2024/03/29 14:44:59;;;;;;;8.00;2.00;;;;;;;27.06;23.37;100409.69;108192;1262;69908;-87
2024/03/29 14:47:25;;;;;;;12.80;2.20;;;;;;;27.08;23.35;100412.66;107547;1263;69939;-88
2024/03/29 14:49:51;;;;;;;11.80;2.10;;;;;;;27.08;23.35;100412.70;107358;1263;70093;-88
2024/03/29 14:52:21;;;;;;;17.00;2.50;;;;;;;27.08;23.43;100414.29;107875;1262;69887;-89
2024/03/29 14:54:47;;;;;;;23.40;2.40;;;;;;;27.09;23.48;100422.13;107412;1263;70003;-89
2024/03/29 14:57:12;;;;;;;16.60;2.40;;;;;;;27.09;23.42;100428.73;107666;1263;68698;-86
2024/03/29 14:59:38;;;;;;;13.40;2.20;;;;;;;27.10;23.40;100433.34;107478;1266;69936;-87
2024/03/29 15:04:48;;;;;;;21.40;2.60;;;;;;;27.10;23.42;100442.73;107809;1263;69902;-90
2024/03/29 15:07:14;;;;;;;18.00;2.50;;;;;;;27.10;23.30;100447.85;107621;1262;67777;-75
2024/03/29 15:09:40;;;;;;;29.20;2.70;;;;;;;27.10;23.39;100444.67;107179;1262;69908;-83
2024/03/29 15:12:05;;;;;;;21.30;2.20;;;;;;;27.09;23.36;100441.38;107294;1263;70082;-83
2024/03/29 15:14:31;;;;;;;18.40;2.10;;;;;;;27.07;23.44;100443.71;107367;1266;70123;-83
2024/03/29 15:16:57;;;;;;;15.90;2.10;;;;;;;27.06;23.35;100439.80;107231;1264;68072;-83
2024/03/29 15:19:22;;;;;;;19.50;2.00;;;;;;;27.06;23.55;100443.88;108231;1264;67517;-83
2024/03/29 15:21:48;;;;;;;15.30;2.20;;;;;;;27.07;23.68;100445.63;108674;1268;69947;-83
2024/03/29 15:24:15;;;;;;;18.50;2.00;;;;;;;27.07;23.63;100444.95;108882;1264;67842;-83
2024/03/29 15:26:41;;;;;;;12.80;2.10;;;;;;;27.08;23.61;100451.99;108892;1265;67781;-83
2024/03/29 15:29:12;;;;;;;14.70;2.00;;;;;;;27.09;23.64;100456.81;107526;1266;70011;-88
2024/03/29 15:31:38;;;;;;;14.10;2.00;;;;;;;27.09;23.57;100463.48;106920;1266;69887;-83
2024/03/29 15:34:04;;;;;;;10.00;2.10;;;;;;;27.10;23.60;100470.42;106980;1268;69933;-82
2024/03/29 15:36:30;;;;;;;9.80;2.10;;;;;;;27.11;23.74;100474.89;106833;1266;70005;-83
2024/03/29 15:39:04;;;;;;;10.00;1.90;;;;;;;27.11;23.66;100476.34;106907;1268;70115;-83
2024/03/29 15:41:29;;;;;;;6.20;1.70;;;;;;;27.10;23.59;100481.33;106895;1264;68072;-82
2024/03/29 15:43:59;;;;;;;10.70;1.70;;;;;;;27.10;23.69;100481.60;106897;1267;70137;-88
2024/03/29 15:46:25;;;;;;;10.60;1.70;;;;;;;27.09;23.59;100480.95;106895;1269;75265;-83
2024/03/29 15:48:51;;;;;;;9.60;1.50;;;;;;;27.08;23.52;100475.29;107104;1268;69931;-82
2024/03/29 15:51:16;;;;;;;9.40;1.60;;;;;;;27.07;23.65;100475.21;106867;1264;70155;-82
2024/03/29 15:53:42;;;;;;;6.90;1.70;;;;;;;27.07;23.49;100474.79;106991;1266;70011;-82
2024/03/29 15:56:07;;;;;;;6.20;1.90;;;;;;;27.07;23.50;100474.75;106904;1264;69886;-82
2024/03/29 15:58:33;;;;;;;10.30;2.00;;;;;;;27.06;23.47;100474.66;107110;1263;69889;-83
2024/03/29 16:00:59;;;;;;;7.50;1.60;;;;;;;27.04;23.52;100473.10;106915;1264;70009;-83
2024/03/29 16:03:25;;;;;;;8.30;1.90;;;;;;;27.04;23.42;100473.52;106954;1264;69900;-83
2024/03/29 16:05:51;;;;;;;7.00;1.80;;;;;;;27.05;23.46;100475.84;106817;1264;69864;-82
2024/03/29 16:08:18;;;;;;;10.60;2.10;;;;;;;27.04;23.47;100476.88;106926;1266;69888;-83
2024/03/29 16:11:05;;;;;;;9.80;1.70;;;;;;;27.03;23.48;100475.25;106979;1268;70125;-83
2024/03/29 16:13:31;;;;;;;7.90;1.80;;;;;;;27.03;23.37;100478.65;107061;1266;69986;-83
2024/03/29 16:15:58;;;;;;;5.90;1.90;;;;;;;27.04;23.50;100483.80;106968;1264;68135;-82
2024/03/29 16:18:26;;;;;;;7.40;1.90;;;;;;;27.04;23.41;100486.28;107140;1269;69837;-83
2024/03/29 16:20:51;;;;;;;6.70;1.60;;;;;;;27.04;23.49;100484.30;107236;1266;75145;-82
2024/03/29 16:23:16;;;;;;;9.00;1.80;;;;;;;27.05;23.47;100479.14;107054;1268;69991;-82
2024/03/29 16:25:43;;;;;;;6.70;1.90;;;;;;;27.05;23.50;100475.84;106847;1268;69943;-83
2024/03/29 16:28:10;;;;;;;8.80;1.90;;;;;;;27.05;23.52;100479.85;107046;1267;71099;-83
2024/03/29 16:30:39;;;;;;;8.70;1.90;;;;;;;27.06;23.56;100482.32;106932;1267;69966;-83
2024/03/29 16:33:05;;;;;;;9.10;1.60;;;;;;;27.05;23.50;100487.12;106924;1267;74308;-83
2024/03/29 16:35:31;;;;;;;6.50;1.70;;;;;;;27.05;23.48;100486.97;107079;1268;69959;-83
2024/03/29 16:37:56;;;;;;;8.10;1.80;;;;;;;27.06;23.63;100489.55;106926;1264;69930;-83
2024/03/29 16:40:22;;;;;;;8.50;1.80;;;;;;;27.06;23.69;100485.99;107065;1263;68706;-82
2024/03/29 16:42:47;;;;;;;4.90;1.90;;;;;;;27.06;23.78;100482.74;106957;1264;70199;-84
2024/03/29 16:45:13;;;;;;;9.80;2.10;;;;;;;27.06;23.80;100479.07;106626;1266;69756;-83
2024/03/29 16:47:38;;;;;;;6.60;1.90;;;;;;;27.06;23.59;100486.77;106084;1264;70008;-84
2024/03/29 16:50:05;;;;;;;8.70;2.30;;;;;;;27.05;23.92;100485.95;105866;1267;69990;-84
2024/03/29 16:52:30;;;;;;;6.30;2.00;;;;;;;27.05;23.86;100482.77;105885;1269;69902;-84
2024/03/29 16:54:56;;;;;;;7.20;1.90;;;;;;;27.03;23.84;100489.76;105958;1268;70056;-83
2024/03/29 16:57:21;;;;;;;9.70;2.00;;;;;;;27.03;23.95;100496.80;105956;1269;70338;-84
2024/03/29 16:59:47;;;;;;;6.20;2.20;;;;;;;27.02;23.95;100495.00;105909;1265;70004;-83
2024/03/29 17:02:14;;;;;;;5.20;2.20;;;;;;;27.00;23.86;100493.74;105867;1264;70146;-84
2024/03/29 17:04:41;;;;;;;6.30;2.40;;;;;;;26.99;24.00;100493.47;105858;1264;70336;-89
2024/03/29 17:07:07;;;;;;;13.80;2.60;;;;;;;26.97;24.06;100488.05;106288;1271;70013;-84
2024/03/29 17:09:37;;;;;;;9.60;2.40;;;;;;;26.97;24.13;100486.10;105998;1269;70009;-84
2024/03/29 17:12:03;;;;;;;11.30;2.50;;;;;;;26.95;24.18;100484.55;106086;1266;71078;-84
2024/03/29 17:14:29;;;;;;;11.40;3.00;;;;;;;26.95;24.24;100489.50;105974;1266;70465;-84
2024/03/29 17:17:03;;;;;;;9.30;3.00;;;;;;;26.95;24.24;100490.48;105857;1269;69909;-84
2024/03/29 17:19:32;;;;;;;8.20;2.70;;;;;;;26.94;24.13;100485.75;105760;1269;69954;-84
2024/03/29 17:21:57;;;;;;;12.60;3.30;;;;;;;26.94;24.02;100478.73;105917;1267;70034;-84
2024/03/29 17:24:23;;;;;;;5.90;2.20;;;;;;;26.94;24.13;100471.10;105741;1264;70054;-84
2024/03/29 17:26:48;;;;;;;9.70;2.40;;;;;;;26.93;24.21;100473.28;105867;1268;69998;-84
2024/03/29 17:29:14;;;;;;;4.90;2.20;;;;;;;26.93;24.17;100487.66;105771;1269;70101;-84
2024/03/29 17:31:44;;;;;;;5.60;2.40;;;;;;;26.92;24.16;100489.48;105881;1265;69935;-90
2024/03/29 17:34:12;;;;;;;11.70;2.60;;;;;;;26.92;24.15;100491.70;105869;1266;69928;-84
2024/03/29 17:36:41;;;;;;;14.00;3.30;;;;;;;26.91;24.28;100495.06;105986;1264;69905;-84
2024/03/29 17:39:13;;;;;;;18.30;3.70;;;;;;;26.91;24.28;100507.63;106076;1264;74441;-84
2024/03/29 17:41:44;;;;;;;17.40;3.60;;;;;;;26.90;24.48;100504.55;105953;1267;69897;-84
2024/03/29 17:44:12;;;;;;;18.70;3.40;;;;;;;26.90;24.80;100499.14;105992;1269;69994;-84
2024/03/29 17:46:42;;;;;;;18.00;3.00;;;;;;;26.90;25.11;100502.43;105939;1264;69885;-90
2024/03/29 17:49:11;;;;;;;14.10;3.30;;;;;;;26.90;25.19;100505.31;105907;1268;69844;-84
2024/03/29 17:51:36;;;;;;;17.00;2.80;;;;;;;26.91;25.41;100504.08;105854;1267;74322;-84
2024/03/29 17:54:02;;;;;;;11.70;3.10;;;;;;;26.91;25.64;100501.65;105927;1267;70109;-84
2024/03/29 17:56:27;;;;;;;12.30;2.90;;;;;;;26.91;25.72;100495.45;106230;1267;70012;-85
2024/03/29 17:58:53;;;;;;;11.10;3.00;;;;;;;26.91;25.70;100501.69;105890;1272;69920;-84
2024/03/29 18:01:18;;;;;;;13.70;2.70;;;;;;;26.91;25.66;100510.40;105756;1269;70017;-84
2024/03/29 18:03:46;;;;;;;7.90;2.50;;;;;;;26.92;25.86;100513.13;105940;1269;70086;-84
2024/03/29 18:06:11;;;;;;;8.20;2.80;;;;;;;26.91;25.68;100516.23;105946;1265;70019;-84
2024/03/29 18:08:37;;;;;;;11.10;2.80;;;;;;;26.91;25.93;100517.36;105942;1268;69987;-84
2024/03/29 18:11:02;;;;;;;9.90;2.80;;;;;;;26.91;25.62;100515.63;105911;1265;70091;-84
2024/03/29 18:13:37;;;;;;;12.20;2.90;;;;;;;26.91;25.62;100516.92;105976;1264;70068;-89
2024/03/29 18:16:04;;;;;;;11.00;2.70;;;;;;;26.91;25.58;100516.23;106003;1263;69847;-83
2024/03/29 18:18:30;;;;;;;7.70;2.90;;;;;;;26.92;25.53;100517.41;106159;1268;70298;-83
2024/03/29 18:20:55;;;;;;;7.10;2.40;;;;;;;26.92;25.52;100516.01;106129;1269;70018;-84
2024/03/29 18:23:21;;;;;;;10.70;2.80;;;;;;;26.93;25.63;100512.95;106150;1264;70003;-83
2024/03/29 18:25:46;;;;;;;9.00;2.70;;;;;;;26.93;25.69;100512.69;106385;1268;70020;-84
2024/03/29 18:28:12;;;;;;;9.70;2.90;;;;;;;26.94;25.58;100516.23;108166;1267;69994;-84
2024/03/29 18:30:40;;;;;;;6.90;2.90;;;;;;;26.95;25.66;100523.16;109233;1264;67550;-84
2024/03/29 18:33:06;;;;;;;9.20;2.80;;;;;;;26.96;25.70;100524.41;109203;1264;67567;-84
2024/03/29 18:35:33;;;;;;;7.50;2.80;;;;;;;26.98;25.61;100526.70;109169;1263;68918;-85
2024/03/29 18:38:02;;;;;;;9.70;2.90;;;;;;;26.99;25.67;100530.61;109192;1264;67788;-84
2024/03/29 18:40:34;;;;;;;9.10;2.60;;;;;;;27.02;25.62;100532.75;108895;1263;69822;-89
2024/03/29 18:42:59;;;;;;;9.50;2.80;;;;;;;27.04;25.57;100530.43;107448;1264;70027;-83
2024/03/29 18:45:25;;;;;;;8.70;2.90;;;;;;;27.06;25.48;100524.80;105984;1269;70006;-83
2024/03/29 18:47:54;;;;;;;10.30;3.00;;;;;;;27.07;25.62;100522.51;106056;1267;70083;-83
2024/03/29 18:50:20;;;;;;;9.90;3.00;;;;;;;27.07;25.52;100517.44;106007;1265;69808;-83
2024/03/29 18:52:46;;;;;;;8.30;2.90;;;;;;;27.08;25.44;100519.63;105870;1264;71111;-83
2024/03/29 18:55:11;;;;;;;7.60;3.20;;;;;;;27.08;25.52;100519.37;105673;1266;70160;-83
2024/03/29 18:57:37;;;;;;;8.70;3.20;;;;;;;27.08;25.51;100514.67;105896;1264;70001;-83
2024/03/29 19:00:04;;;;;;;7.50;2.80;;;;;;;27.08;25.51;100513.23;106019;1269;70009;-83
2024/03/29 19:02:29;;;;;;;8.20;2.80;;;;;;;27.07;25.45;100517.13;106194;1267;69897;-83
2024/03/29 19:04:55;;;;;;;5.70;2.90;;;;;;;27.08;25.51;100520.85;105914;1269;70007;-83
2024/03/29 19:07:25;;;;;;;8.30;3.00;;;;;;;27.08;25.47;100528.54;105869;1267;70122;-89
2024/03/29 19:09:51;;;;;;;8.20;3.10;;;;;;;27.07;25.33;100529.59;105892;1267;75572;-83
2024/03/29 19:12:22;;;;;;;7.80;3.00;;;;;;;27.07;25.39;100531.57;105992;1264;70022;-83
2024/03/29 19:14:51;;;;;;;6.90;3.10;;;;;;;27.07;25.41;100530.54;105945;1267;70011;-84
2024/03/29 19:17:20;;;;;;;7.30;2.70;;;;;;;27.06;25.50;100530.64;105978;1269;69972;-83
2024/03/29 19:19:45;;;;;;;7.70;2.80;;;;;;;27.06;25.62;100529.66;105654;1267;352853;-84
2024/03/29 19:22:19;;;;;;;5.60;2.90;;;;;;;27.06;25.50;100530.52;105918;1264;70065;-89
2024/03/29 19:24:52;;;;;;;6.40;2.90;;;;;;;27.06;25.51;100531.77;105854;1263;70046;-83
2024/03/29 19:27:18;;;;;;;6.00;2.70;;;;;;;27.06;25.42;100537.48;106124;1264;70017;-83
2024/03/29 19:29:48;;;;;;;8.70;2.80;;;;;;;27.06;25.34;100538.15;106119;1267;70006;-83
2024/03/29 19:32:14;;;;;;;6.10;2.50;;;;;;;27.06;25.36;100541.54;106150;1268;69960;-83
2024/03/29 19:34:39;;;;;;;5.80;3.00;;;;;;;27.06;25.36;100542.88;105983;1264;70003;-83
2024/03/29 19:37:13;;;;;;;6.50;3.00;;;;;;;27.07;25.37;100544.89;106070;1265;70264;-88
2024/03/29 19:39:41;;;;;;;5.10;2.90;;;;;;;27.07;25.32;100546.78;106397;1267;70028;-82
2024/03/29 19:42:07;;;;;;;7.20;3.20;;;;;;;27.07;25.39;100547.09;106539;1266;69937;-83
2024/03/29 19:44:32;;;;;;;7.40;3.00;;;;;;;27.07;25.40;100553.64;106341;1263;69103;-83
2024/03/29 19:46:58;;;;;;;7.70;3.60;;;;;;;27.08;25.27;100559.36;106459;1266;69984;-83
2024/03/29 19:49:24;;;;;;;6.90;3.60;;;;;;;27.08;25.30;100563.23;106443;1263;69987;-83
2024/03/29 19:51:51;;;;;;;6.90;3.50;;;;;;;27.08;25.37;100560.13;106207;1267;69936;-83
2024/03/29 19:54:16;;;;;;;7.50;3.80;;;;;;;27.08;25.25;100558.58;106419;1263;69973;-83
2024/03/29 19:56:42;;;;;;;8.00;3.70;;;;;;;27.09;25.26;100559.06;106447;1275;69991;-83
2024/03/29 19:59:07;;;;;;;9.80;3.60;;;;;;;27.09;25.25;100560.36;106406;1267;69987;-83
2024/03/29 20:01:33;;;;;;;9.70;4.20;;;;;;;27.09;25.06;100564.59;106375;1262;71137;-83
2024/03/29 20:04:06;;;;;;;9.30;4.50;;;;;;;27.09;25.30;100572.86;106235;1263;70083;-86
2024/03/29 20:06:33;;;;;;;7.90;4.20;;;;;;;27.10;25.27;100575.02;106066;1268;75273;-83
2024/03/29 20:08:59;;;;;;;10.60;4.40;;;;;;;27.10;25.26;100578.77;106529;1264;69905;-83
2024/03/29 20:11:25;;;;;;;7.80;4.50;;;;;;;27.11;25.23;100581.81;106491;1263;69973;-83
2024/03/29 20:13:50;;;;;;;7.80;4.30;;;;;;;27.11;25.03;100586.39;106427;1263;69955;-83
2024/03/29 20:16:16;;;;;;;8.30;4.60;;;;;;;27.11;25.18;100588.77;106362;1263;70927;-83
2024/03/29 20:18:41;;;;;;;7.60;4.40;;;;;;;27.11;25.20;100592.27;106272;1267;69948;-83
2024/03/29 20:21:07;;;;;;;9.90;4.40;;;;;;;27.12;25.13;100590.72;106398;1263;70021;-83
2024/03/29 20:23:33;;;;;;;7.10;4.20;;;;;;;27.12;25.26;100591.23;106222;1263;69998;-83
2024/03/29 20:25:58;;;;;;;8.70;4.70;;;;;;;27.12;25.24;100593.34;106056;1270;70093;-83
2024/03/29 20:28:28;;;;;;;7.80;3.90;;;;;;;27.12;25.12;100595.35;106241;1263;70727;-83
2024/03/29 20:30:55;;;;;;;8.80;4.70;;;;;;;27.13;25.19;100599.61;106158;1267;69873;-88
2024/03/29 20:33:21;;;;;;;7.80;4.20;;;;;;;27.13;25.14;100599.36;106040;1268;70140;-83
2024/03/29 20:35:47;;;;;;;11.60;4.30;;;;;;;27.13;25.22;100601.48;106094;1264;71174;-83